Главная страница
METAR-TAF:

METAR-TAF

Аэропорты :

Международный аэропорт имени Ференца Листа

Будапешт, Венгрия

широта: 47-26N, долгота: 019-16E, высота над уровнем моря: 151 м

Текущие метеонаблюдения

Эта сводка был подготовлена 11 минут назад, в 03:00 UTC
Ветер 3 Узел переменных направлений
Температура 18°C
Влажность 94%
Давление 1016 hPa
Видимость 10 км и более
Нет облачности ниже 1500 м, и нет кучево-дождевой облачности

METAR: LHBP 170300Z VRB03KT CAVOK 18/17 Q1016 NOSIG

Время: 05:11 (03:11 UTC)

Прогноз

Эта сводка был подготовлена 3 часа и 56 минут назад, в 23:15 UTC
Прогноз действительный с 17-го 00 UTC до 17-го 24 UTC
Ветер 3 Узел переменных направлений
Видимость 10 км и более
Нет облачности ниже 1500 м, и нет кучево-дождевой облачности

TAF: LHBP 162315Z 1700/1724 VRB03KT CAVOK

Метеонаблюдения и прогнозы для более 4000 аэропортов (сводки METAR и TAF).

Имеющиеся станции представлены на карте желтыми и красными точками.

Чтобы увидеть название станции, наведите на нее мышь.

Затем щелкните, чтобы увидеть метеонаблюдения и метеопрогнозы.

Управление картой: чтобы увеличить масштаб, щелкните зеленые кнопки с черным крестиком; чтобы уменьшить масштаб, щелкните зеленую кнопку с тире; для просмотра соседних карт щелкайте зеленые стрелки.


METAR-TAF: